Terminal Aerodrome Forecast
Issued by NWS

Home | Current Version | Previous Version | Text Only | Print | Product List | Glossary On
Versions: 1 2 3 4 5 6 7 8 9 10 11 12 13 14 15
000
FTUS44 KEPZ 030252 AAB
TAFTCS
TAF AMD
KTCS 030252Z 0303/0324 01020G35KT P6SM VCTS SCT080CB OVC200
      TEMPO 0303/0305 -TSRA BKN050CB
     FM030500 36008KT P6SM SCT050 OVC200
     FM031800 07007KT P6SM SCT080 OVC250
     FM032000 10005KT P6SM VCTS BKN080CB OVC250=

USA.gov is the U.S. government's official web portal to all federal, state and local government web resources and services.